Terminal Aerodrome Forecast
Issued by NWS

Home | Current Version | Previous Version | Text Only | Print | Product List | Glossary On
Versions: 1 2 3 4 5 6 7 8 9 10 11 12 13
000
FTUS46 KLOX 191700
TAFPMD
TAF
KPMD 191735Z 1918/2018 30005KT P6SM SKC
     FM192200 26015KT P6SM SCT200
     FM200400 23008KT P6SM SCT200=

USA.gov is the U.S. government's official web portal to all federal, state and local government web resources and services.